Time;durP1;ratioP1;P1;durP2;ratioP2;P2;SDS_P1;SDS_P2;PMS_P1;PMS_P2;Temp;Humidity;BMP_temperature;BMP_pressure;BME280_temperature;BME280_humidity;BME280_pressure;Samples;Min_cycle;Max_cycle;Signal;HPM_P1;HPM_P2
2022/10/06 00:00:52;;;;;;;9.85;2.00;;;12.60;99.90;;;;;;5056290;28;20099;-24
2022/10/06 00:03:21;;;;;;;9.55;1.25;;;12.60;99.90;;;;;;5054999;28;20045;-25
2022/10/06 00:05:48;;;;;;;10.32;1.50;;;12.50;99.90;;;;;;5055261;28;20442;-25
2022/10/06 00:08:14;;;;;;;11.77;1.63;;;12.60;99.90;;;;;;5056438;28;20379;-25
2022/10/06 00:10:40;;;;;;;9.80;1.80;;;12.60;99.90;;;;;;5055560;28;20049;-25
2022/10/06 00:13:06;;;;;;;20.40;2.83;;;12.60;99.90;;;;;;5055372;28;20045;-25
2022/10/06 00:15:32;;;;;;;16.85;2.45;;;12.60;99.90;;;;;;5055474;28;20186;-24
2022/10/06 00:17:59;;;;;;;12.45;1.63;;;12.60;99.90;;;;;;5056263;28;20049;-24
2022/10/06 00:20:26;;;;;;;17.80;2.50;;;12.60;99.90;;;;;;5055380;28;20049;-24
2022/10/06 00:22:52;;;;;;;10.68;1.65;;;12.60;99.90;;;;;;5054207;28;20051;-24
2022/10/06 00:25:20;;;;;;;11.27;2.42;;;12.60;99.90;;;;;;5056038;28;20049;-24
2022/10/06 00:27:48;;;;;;;9.57;1.52;;;12.60;99.90;;;;;;5054521;28;20047;-24
2022/10/06 00:30:26;;;;;;;11.18;1.50;;;12.60;99.90;;;;;;5055711;28;20041;-24
2022/10/06 00:32:55;;;;;;;15.75;2.35;;;12.60;99.90;;;;;;5055743;28;20099;-24
2022/10/06 00:35:23;;;;;;;13.73;1.65;;;12.50;99.90;;;;;;5055088;28;20049;-24
2022/10/06 00:37:48;;;;;;;15.40;2.30;;;12.50;99.90;;;;;;5055103;28;20048;-25
2022/10/06 00:40:14;;;;;;;14.82;2.35;;;12.40;99.90;;;;;;5054051;28;20455;-24
2022/10/06 00:43:26;;;;;;;13.43;1.70;;;12.40;99.90;;;;;;5054616;28;20061;-24
2022/10/06 00:45:52;;;;;;;13.02;2.08;;;12.30;99.90;;;;;;5055350;28;20041;-24
2022/10/06 00:48:22;;;;;;;9.88;1.75;;;12.20;99.90;;;;;;5053881;28;20128;-24
2022/10/06 00:50:50;;;;;;;13.00;2.92;;;12.20;99.90;;;;;;5054841;28;20041;-24
2022/10/06 00:53:16;;;;;;;15.65;1.48;;;12.30;99.90;;;;;;5054754;28;20048;-25
2022/10/06 00:55:42;;;;;;;8.55;1.65;;;12.30;99.90;;;;;;5054584;28;20067;-24
2022/10/06 00:58:09;;;;;;;8.98;2.42;;;12.20;99.90;;;;;;5036836;28;20049;-24
2022/10/06 01:00:34;;;;;;;13.20;1.58;;;12.30;99.90;;;;;;5054600;28;20080;-25
2022/10/06 01:03:10;;;;;;;12.43;2.17;;;12.20;99.90;;;;;;5054546;28;20087;-25
2022/10/06 01:05:42;;;;;;;15.25;1.92;;;12.20;99.90;;;;;;5054490;28;20045;-24
2022/10/06 01:08:08;;;;;;;12.70;1.73;;;12.20;99.90;;;;;;5054561;28;20119;-24
2022/10/06 01:10:33;;;;;;;16.35;2.25;;;12.20;99.90;;;;;;5054429;28;20087;-24
2022/10/06 01:13:00;;;;;;;12.43;1.55;;;12.20;99.90;;;;;;5054949;28;20099;-24
2022/10/06 01:15:27;;;;;;;9.43;1.92;;;12.20;99.90;;;;;;5053998;28;20403;-24
2022/10/06 01:17:59;;;;;;;17.20;2.25;;;12.20;99.90;;;;;;5054605;28;20549;-24
2022/10/06 01:20:25;;;;;;;15.55;2.20;;;12.20;99.90;;;;;;5054751;28;20088;-24
2022/10/06 01:23:03;;;;;;;11.38;2.35;;;12.10;99.90;;;;;;5054185;28;20095;-24
2022/10/06 01:25:31;;;;;;;12.07;1.70;;;12.10;99.90;;;;;;5054120;28;20041;-24
2022/10/06 01:27:58;;;;;;;14.05;2.33;;;12.10;99.90;;;;;;5054158;28;20045;-24
2022/10/06 01:30:35;;;;;;;13.63;2.03;;;12.10;99.90;;;;;;5053116;28;20052;-24
2022/10/06 01:33:01;;;;;;;6.90;1.40;;;12.00;99.90;;;;;;5054097;28;20049;-24
2022/10/06 01:35:26;;;;;;;11.35;1.60;;;12.10;99.90;;;;;;5054013;28;20049;-24
2022/10/06 01:37:53;;;;;;;8.75;1.40;;;12.00;99.90;;;;;;5054238;28;20045;-24
2022/10/06 01:40:19;;;;;;;13.27;2.03;;;12.00;99.90;;;;;;5053822;28;20053;-24
2022/10/06 01:42:45;;;;;;;15.55;2.63;;;12.00;99.90;;;;;;5053916;28;20056;-24
2022/10/06 01:45:11;;;;;;;14.00;2.53;;;11.90;99.90;;;;;;5053163;28;20049;-24
2022/10/06 01:47:37;;;;;;;11.98;2.65;;;12.00;99.90;;;;;;5053794;28;20048;-24
2022/10/06 01:50:05;;;;;;;13.38;2.13;;;12.00;99.90;;;;;;5053174;28;20124;-24
2022/10/06 01:52:31;;;;;;;15.73;2.05;;;12.00;99.90;;;;;;5052875;28;20056;-24
2022/10/06 01:54:57;;;;;;;14.35;1.75;;;11.90;99.90;;;;;;5053342;28;20041;-25
2022/10/06 01:57:22;;;;;;;11.45;1.88;;;11.90;99.90;;;;;;5053680;28;20099;-24
2022/10/06 01:59:48;;;;;;;12.07;2.30;;;11.90;99.90;;;;;;5053969;28;20052;-24
2022/10/06 02:02:14;;;;;;;10.25;2.10;;;11.90;99.90;;;;;;5053293;28;20045;-24
2022/10/06 02:04:39;;;;;;;9.27;1.25;;;11.70;99.90;;;;;;5053617;28;20052;-24
2022/10/06 02:07:05;;;;;;;9.20;1.67;;;11.70;99.90;;;;;;5052371;28;20073;-24
2022/10/06 02:09:31;;;;;;;12.07;1.90;;;11.60;99.90;;;;;;5054396;28;20563;-24
2022/10/06 02:11:56;;;;;;;11.40;1.38;;;11.60;99.90;;;;;;5053816;28;20379;-24
2022/10/06 02:14:22;;;;;;;16.92;2.30;;;11.70;99.90;;;;;;5053516;28;20049;-24
2022/10/06 02:16:48;;;;;;;16.45;1.77;;;11.70;99.90;;;;;;5053506;28;20041;-24
2022/10/06 02:19:13;;;;;;;9.35;1.60;;;11.60;99.90;;;;;;5053036;28;20052;-24
2022/10/06 02:21:39;;;;;;;11.95;1.35;;;11.70;99.90;;;;;;5054001;28;20430;-24
2022/10/06 02:24:05;;;;;;;12.15;1.40;;;11.80;99.90;;;;;;5052804;28;20110;-24
2022/10/06 02:26:31;;;;;;;9.88;2.72;;;11.80;99.90;;;;;;5053359;28;20067;-23
2022/10/06 02:28:56;;;;;;;17.02;2.47;;;11.80;99.90;;;;;;5053408;28;20482;-23
2022/10/06 02:31:23;;;;;;;13.07;2.83;;;11.70;99.90;;;;;;5053970;28;20049;-22
2022/10/06 02:33:48;;;;;;;12.90;2.20;;;11.60;99.90;;;;;;5053368;28;20075;-22
2022/10/06 02:36:17;;;;;;;15.48;2.95;;;11.70;99.90;;;;;;5053884;28;20371;-23
2022/10/06 02:38:44;;;;;;;18.15;2.75;;;11.60;99.90;;;;;;5053285;28;20094;-23
2022/10/06 02:41:10;;;;;;;13.73;2.50;;;11.50;99.90;;;;;;5052911;28;20106;-23
2022/10/06 02:43:36;;;;;;;13.05;1.65;;;11.60;99.90;;;;;;5053278;28;20045;-23
2022/10/06 02:46:10;;;;;;;12.40;1.98;;;11.70;99.90;;;;;;5053136;28;20048;-23
2022/10/06 02:48:37;;;;;;;17.50;2.90;;;11.70;99.90;;;;;;5053807;28;20056;-23
2022/10/06 02:51:11;;;;;;;8.82;1.25;;;11.80;99.90;;;;;;5052487;28;20049;-24
2022/10/06 02:53:38;;;;;;;14.75;2.30;;;11.70;99.90;;;;;;5052301;28;20041;-24
2022/10/06 02:56:06;;;;;;;12.23;1.85;;;11.70;99.90;;;;;;5053003;28;20049;-24
2022/10/06 02:58:32;;;;;;;9.82;1.42;;;11.70;99.90;;;;;;5053121;28;20406;-24
2022/10/06 03:01:10;;;;;;;18.40;2.08;;;11.50;99.90;;;;;;5053096;28;20044;-24
2022/10/06 03:03:37;;;;;;;13.88;2.30;;;11.40;99.90;;;;;;5053375;28;20041;-24
2022/10/06 03:06:20;;;;;;;16.30;2.60;;;11.40;99.90;;;;;;5056711;28;20540;-23
2022/10/06 03:08:57;;;;;;;10.02;1.58;;;11.40;99.90;;;;;;5057424;28;20092;-24
2022/10/06 03:11:35;;;;;;;15.68;2.33;;;11.40;99.90;;;;;;5056770;28;20055;-24
2022/10/06 03:14:05;;;;;;;13.80;3.75;;;11.40;99.90;;;;;;5055839;28;20052;-24
2022/10/06 03:16:34;;;;;;;9.82;1.85;;;11.40;99.90;;;;;;5056627;28;20063;-24
2022/10/06 03:19:00;;;;;;;14.95;2.10;;;11.40;99.90;;;;;;5056572;28;20087;-24
2022/10/06 03:21:31;;;;;;;14.43;2.33;;;11.50;99.90;;;;;;5056189;28;20476;-24
2022/10/06 03:23:58;;;;;;;17.65;2.63;;;11.50;99.90;;;;;;5057071;28;20041;-24
2022/10/06 03:26:26;;;;;;;9.50;1.35;;;11.50;99.90;;;;;;5056910;28;20079;-24
2022/10/06 03:28:53;;;;;;;13.65;1.77;;;11.60;99.90;;;;;;5057229;28;20114;-24
2022/10/06 03:31:19;;;;;;;14.80;2.05;;;11.50;99.90;;;;;;5056373;28;20091;-24
2022/10/06 03:33:45;;;;;;;16.75;2.15;;;11.50;99.90;;;;;;5055294;28;20049;-24
2022/10/06 03:36:13;;;;;;;15.75;2.85;;;11.40;99.90;;;;;;5055906;28;20049;-24
2022/10/06 03:38:39;;;;;;;14.15;2.28;;;11.40;99.90;;;;;;5056198;28;20062;-24
2022/10/06 03:41:07;;;;;;;15.68;2.58;;;11.30;99.90;;;;;;5055787;28;20060;-24
2022/10/06 03:43:34;;;;;;;13.05;2.22;;;11.30;99.90;;;;;;5054845;28;20061;-24
2022/10/06 03:46:01;;;;;;;11.13;2.10;;;11.30;99.90;;;;;;5055790;28;20049;-24
2022/10/06 03:48:28;;;;;;;10.27;2.25;;;11.40;99.90;;;;;;5056020;28;20111;-24
2022/10/06 03:51:02;;;;;;;11.77;2.50;;;11.40;99.90;;;;;;5056482;28;20040;-24
2022/10/06 03:53:29;;;;;;;12.13;2.03;;;11.60;99.90;;;;;;5055532;28;20056;-24
2022/10/06 03:56:04;;;;;;;11.32;1.75;;;11.80;99.90;;;;;;5055784;28;20105;-24
2022/10/06 03:58:32;;;;;;;9.98;1.63;;;11.70;99.90;;;;;;5055533;28;20045;-24
2022/10/06 04:01:08;;;;;;;14.00;1.95;;;11.60;99.90;;;;;;5056091;28;20111;-24
2022/10/06 04:03:34;;;;;;;7.28;1.60;;;11.40;99.90;;;;;;5055744;28;20040;-24
2022/10/06 04:06:03;;;;;;;12.18;2.08;;;11.30;99.90;;;;;;5054883;28;20080;-24
2022/10/06 04:08:30;;;;;;;14.25;2.53;;;11.30;99.90;;;;;;5056201;28;20453;-24
2022/10/06 04:11:06;;;;;;;13.27;2.33;;;11.20;99.90;;;;;;5054632;28;20045;-24
2022/10/06 04:13:32;;;;;;;12.82;1.90;;;11.30;99.90;;;;;;5055602;28;20061;-24
2022/10/06 04:15:58;;;;;;;11.10;1.40;;;11.30;99.90;;;;;;5054586;28;20060;-25
2022/10/06 04:18:23;;;;;;;7.90;1.02;;;11.30;99.90;;;;;;5055155;28;20045;-24
2022/10/06 04:20:49;;;;;;;14.27;2.83;;;11.40;99.90;;;;;;5055715;28;20083;-24
2022/10/06 04:23:15;;;;;;;13.40;1.52;;;11.40;99.90;;;;;;5055662;28;20069;-24
2022/10/06 04:25:41;;;;;;;11.70;1.75;;;11.50;99.90;;;;;;5054953;28;20053;-24
2022/10/06 04:28:06;;;;;;;14.85;1.90;;;11.50;99.90;;;;;;5037440;28;20056;-24
2022/10/06 04:30:32;;;;;;;15.50;2.17;;;11.50;99.90;;;;;;5054289;28;20044;-24
2022/10/06 04:32:58;;;;;;;17.35;2.08;;;11.40;99.90;;;;;;5054206;28;20142;-24
2022/10/06 04:35:23;;;;;;;14.18;2.03;;;11.50;99.90;;;;;;5055702;28;20045;-24
2022/10/06 04:37:50;;;;;;;12.63;1.63;;;11.50;99.90;;;;;;5055651;28;20379;-24
2022/10/06 04:40:16;;;;;;;17.67;2.47;;;11.50;99.90;;;;;;5054186;28;20049;-24
2022/10/06 04:42:42;;;;;;;16.65;2.83;;;11.50;99.90;;;;;;5055586;28;20056;-24
2022/10/06 04:45:09;;;;;;;13.65;2.30;;;11.60;99.90;;;;;;5054964;28;20498;-24
2022/10/06 04:47:34;;;;;;;10.45;2.03;;;11.60;99.90;;;;;;5053558;28;20407;-24
2022/10/06 04:50:00;;;;;;;15.15;1.80;;;11.50;99.90;;;;;;5055128;28;20044;-24
2022/10/06 04:52:26;;;;;;;9.57;1.70;;;11.50;99.90;;;;;;5054782;28;20434;-24
2022/10/06 04:54:51;;;;;;;15.00;2.08;;;11.40;99.90;;;;;;5054707;28;20111;-24
2022/10/06 04:57:17;;;;;;;10.25;1.95;;;11.40;99.90;;;;;;5053563;28;20399;-24
2022/10/06 05:02:28;;;;;;;11.85;2.47;;;11.40;99.90;;;;;;5053670;28;20548;-24
2022/10/06 05:04:53;;;;;;;12.52;1.75;;;11.40;99.90;;;;;;5054599;28;20056;-24
2022/10/06 05:07:19;;;;;;;15.40;2.10;;;11.30;99.90;;;;;;5053225;28;20041;-24
2022/10/06 05:09:45;;;;;;;20.77;2.35;;;11.30;99.90;;;;;;5054345;28;20056;-24
2022/10/06 05:12:11;;;;;;;11.27;2.17;;;11.20;99.90;;;;;;5053238;28;20045;-24
2022/10/06 05:14:36;;;;;;;13.25;1.80;;;11.20;99.90;;;;;;5054423;28;20049;-24
2022/10/06 05:17:02;;;;;;;20.92;2.63;;;11.30;99.90;;;;;;5054317;28;20518;-24
2022/10/06 05:19:28;;;;;;;16.48;2.38;;;11.20;99.90;;;;;;5054289;28;20128;-24
2022/10/06 05:21:54;;;;;;;21.95;2.20;;;11.20;99.90;;;;;;5053317;28;20053;-24
2022/10/06 05:24:19;;;;;;;16.70;2.03;;;11.30;99.90;;;;;;5054749;28;20056;-24
2022/10/06 05:26:45;;;;;;;15.13;2.03;;;11.20;99.90;;;;;;5052522;28;20049;-24
2022/10/06 05:29:10;;;;;;;12.38;2.28;;;11.10;99.90;;;;;;5054080;28;20131;-24
2022/10/06 05:31:41;;;;;;;12.75;2.17;;;11.10;99.90;;;;;;5054889;28;20095;-24
2022/10/06 05:34:07;;;;;;;15.75;2.20;;;11.10;99.90;;;;;;5052812;28;20045;-24
2022/10/06 05:36:34;;;;;;;14.82;2.38;;;11.10;99.90;;;;;;5053944;28;20037;-24
2022/10/06 05:39:00;;;;;;;9.07;2.03;;;11.00;99.90;;;;;;5054730;28;20106;-24
2022/10/06 05:41:31;;;;;;;14.32;2.17;;;10.80;99.90;;;;;;5052248;28;20113;-24
2022/10/06 05:43:57;;;;;;;16.48;2.28;;;10.70;99.90;;;;;;5054236;28;20071;-24
2022/10/06 05:46:28;;;;;;;10.55;2.13;;;10.60;99.90;;;;;;5053792;28;20132;-24
2022/10/06 05:49:13;;;;;;;17.20;1.85;;;10.50;99.90;;;;;;5053164;28;20151;-24
2022/10/06 05:51:39;;;;;;;12.93;1.83;;;10.40;99.90;;;;;;5054383;28;20098;-24
2022/10/06 05:54:05;;;;;;;15.57;2.13;;;10.30;99.90;;;;;;5053767;28;20083;-24
2022/10/06 05:56:36;;;;;;;12.05;2.42;;;10.20;99.90;;;;;;5053649;28;20041;-24
2022/10/06 05:59:02;;;;;;;16.13;2.42;;;10.00;99.90;;;;;;5053669;28;20049;-24
2022/10/06 06:01:41;;;;;;;14.45;2.15;;;10.00;99.90;;;;;;5053681;28;20124;-24
2022/10/06 06:04:12;;;;;;;12.00;1.83;;;9.90;99.90;;;;;;5053678;28;20064;-24
2022/10/06 06:06:42;;;;;;;11.80;2.40;;;9.90;99.90;;;;;;5054346;28;20067;-23
2022/10/06 06:09:17;;;;;;;14.18;2.28;;;9.80;99.90;;;;;;5053586;28;20077;-23
2022/10/06 06:11:45;;;;;;;14.98;2.28;;;9.80;99.90;;;;;;5053613;28;20056;-23
2022/10/06 06:14:16;;;;;;;11.65;1.75;;;9.80;99.90;;;;;;5053562;28;20131;-24
2022/10/06 06:16:43;;;;;;;11.40;1.80;;;9.90;99.90;;;;;;5054107;28;20591;-24
2022/10/06 06:19:11;;;;;;;13.50;1.98;;;9.90;99.90;;;;;;5052330;28;20080;-24
2022/10/06 06:21:37;;;;;;;17.88;2.47;;;9.90;99.90;;;;;;5053150;28;20395;-24
2022/10/06 06:24:04;;;;;;;24.52;2.42;;;10.00;99.90;;;;;;5053058;28;20470;-24
2022/10/06 06:26:32;;;;;;;13.82;1.58;;;10.10;99.90;;;;;;5036540;28;20056;-24
2022/10/06 06:29:03;;;;;;;10.50;1.65;;;10.20;99.90;;;;;;5053420;28;20048;-24
2022/10/06 06:31:42;;;;;;;13.50;1.98;;;10.20;99.90;;;;;;5054050;28;20048;-24
2022/10/06 06:34:10;;;;;;;16.67;2.30;;;10.30;99.90;;;;;;5052984;28;20110;-23
2022/10/06 06:36:39;;;;;;;12.50;2.38;;;10.40;99.90;;;;;;5052157;28;20119;-24
2022/10/06 06:39:10;;;;;;;11.95;1.80;;;10.60;99.90;;;;;;5055008;28;20045;-24
2022/10/06 06:41:38;;;;;;;14.55;2.88;;;10.80;99.90;;;;;;5058026;28;20118;-24
2022/10/06 06:44:10;;;;;;;11.23;2.10;;;11.00;99.90;;;;;;5057229;28;20084;-24
2022/10/06 06:46:36;;;;;;;8.75;1.52;;;11.00;99.90;;;;;;5057724;28;20128;-24
2022/10/06 06:49:03;;;;;;;15.63;1.90;;;11.10;99.90;;;;;;5057127;28;20135;-24
2022/10/06 06:51:32;;;;;;;11.50;2.20;;;11.00;99.90;;;;;;5057170;28;20114;-24
2022/10/06 06:54:01;;;;;;;12.77;2.55;;;11.00;99.90;;;;;;5056056;28;20479;-24
2022/10/06 06:56:39;;;;;;;13.57;3.47;;;11.20;99.90;;;;;;5057151;28;20491;-24
2022/10/06 06:59:10;;;;;;;17.98;1.98;;;11.30;99.90;;;;;;5056641;28;20052;-24
2022/10/06 07:01:44;;;;;;;17.10;2.30;;;11.50;99.90;;;;;;5057781;28;20049;-24
2022/10/06 07:04:11;;;;;;;10.00;1.63;;;11.50;99.90;;;;;;5057422;28;20395;-24
2022/10/06 07:06:39;;;;;;;17.50;2.80;;;11.50;99.90;;;;;;5055660;28;20045;-24
2022/10/06 07:09:05;;;;;;;13.05;1.65;;;11.50;99.90;;;;;;5057294;28;20395;-24
2022/10/06 07:11:33;;;;;;;11.70;1.67;;;11.40;99.90;;;;;;5057031;28;20124;-24
2022/10/06 07:14:04;;;;;;;12.05;1.60;;;11.50;99.90;;;;;;5057243;28;20078;-24
2022/10/06 07:25:06;;;;;;;12.45;1.88;;;11.80;99.90;;;;;;5056695;28;20499;-24
2022/10/06 07:27:52;;;;;;;7.85;1.33;;;12.00;99.90;;;;;;5056946;28;20045;-24
2022/10/06 07:30:28;;;;;;;12.50;1.52;;;12.10;99.90;;;;;;5056680;28;20142;-24
2022/10/06 07:32:54;;;;;;;12.57;2.65;;;12.20;99.90;;;;;;5056817;28;20052;-24
2022/10/06 07:35:21;;;;;;;16.05;1.83;;;12.30;99.90;;;;;;5056894;28;20044;-24
2022/10/06 07:37:48;;;;;;;19.27;2.30;;;12.40;99.90;;;;;;5056802;28;20375;-25
2022/10/06 07:40:15;;;;;;;10.85;1.38;;;12.40;99.90;;;;;;5055026;28;20040;-24
2022/10/06 07:42:47;;;;;;;16.17;1.80;;;12.50;99.90;;;;;;5055989;28;20061;-24
2022/10/06 07:45:38;;;;;;;16.52;1.85;;;12.50;99.90;;;;;;5056449;28;20048;-24
2022/10/06 07:48:13;;;;;;;10.75;2.40;;;12.60;99.90;;;;;;5056309;28;20045;-24
2022/10/06 07:50:39;;;;;;;15.75;1.90;;;12.70;99.90;;;;;;5055204;28;20040;-24
2022/10/06 07:53:08;;;;;;;11.32;1.77;;;12.70;99.90;;;;;;5056195;28;20045;-24
2022/10/06 07:55:43;;;;;;;12.20;1.55;;;12.70;99.90;;;;;;5054684;28;20403;-24
2022/10/06 07:58:14;;;;;;;11.75;2.22;;;12.90;99.90;;;;;;5055857;28;20095;-24
2022/10/06 08:00:41;;;;;;;14.50;2.80;;;12.90;99.90;;;;;;5056142;28;20044;-24
2022/10/06 08:03:09;;;;;;;10.35;1.70;;;13.00;99.90;;;;;;5056053;28;20049;-24
2022/10/06 08:05:35;;;;;;;20.35;3.53;;;13.00;99.90;;;;;;5056232;28;20136;-24
2022/10/06 08:08:01;;;;;;;19.00;3.00;;;13.00;99.90;;;;;;5055745;28;20152;-24
2022/10/06 08:10:27;;;;;;;12.65;2.10;;;13.10;99.90;;;;;;5056217;28;20045;-24
2022/10/06 08:12:52;;;;;;;16.60;2.55;;;13.20;99.90;;;;;;5055614;28;20128;-24
2022/10/06 08:15:18;;;;;;;12.15;2.33;;;13.20;99.90;;;;;;5054568;28;20070;-24
2022/10/06 08:17:44;;;;;;;12.27;2.10;;;13.20;99.90;;;;;;5056039;28;20078;-25
2022/10/06 08:20:11;;;;;;;9.07;1.98;;;13.30;99.90;;;;;;5054526;28;20087;-24
2022/10/06 08:22:38;;;;;;;13.98;2.25;;;13.30;99.90;;;;;;5055434;28;20123;-24
2022/10/06 08:25:08;;;;;;;23.08;3.03;;;13.40;99.90;;;;;;5055382;28;20391;-24
2022/10/06 08:27:36;;;;;;;9.70;1.63;;;13.40;99.90;;;;;;5054056;28;20040;-24
2022/10/06 08:30:06;;;;;;;8.85;1.85;;;13.50;1.00;;;;;;5055826;28;20102;-24
2022/10/06 08:32:32;;;;;;;10.65;1.70;;;13.50;99.90;;;;;;5055871;28;20071;-24
2022/10/06 08:34:58;;;;;;;14.32;2.08;;;13.60;99.90;;;;;;5055480;28;20059;-24
2022/10/06 08:37:25;;;;;;;8.82;1.42;;;13.60;1.00;;;;;;5055761;28;20372;-25
2022/10/06 08:39:52;;;;;;;11.52;2.28;;;13.60;99.90;;;;;;5054096;28;20138;-24
2022/10/06 08:42:41;;;;;;;13.65;1.77;;;13.80;1.00;;;;;;5054512;28;20110;-24
2022/10/06 08:45:22;;;;;;;10.43;2.45;;;13.80;1.00;;;;;;5054887;28;20086;-25
2022/10/06 08:48:14;;;;;;;13.38;2.28;;;13.90;1.00;;;;;;5055191;28;20051;-25
2022/10/06 08:51:03;;;;;;;12.38;2.45;;;13.90;1.00;;;;;;5054927;28;20045;-24
2022/10/06 08:53:38;;;;;;;9.82;1.73;;;14.00;1.00;;;;;;5054913;28;20501;-24
2022/10/06 08:56:16;;;;;;;14.18;2.30;;;14.10;99.90;;;;;;5054753;28;20095;-25
2022/10/06 08:59:03;;;;;;;12.07;1.88;;;14.10;1.00;;;;;;5054774;28;20098;-25
2022/10/06 09:01:50;;;;;;;14.63;2.03;;;14.20;1.00;;;;;;5054480;28;20071;-25
2022/10/06 09:04:29;;;;;;;12.82;2.05;;;14.20;99.90;;;;;;5053374;28;20044;-25
2022/10/06 09:07:10;;;;;;;11.07;1.58;;;14.20;1.00;;;;;;5054791;28;20087;-25
2022/10/06 09:09:45;;;;;;;16.15;2.15;;;14.60;99.90;;;;;;5053290;28;20045;-24
2022/10/06 09:12:34;;;;;;;13.70;3.15;;;15.10;99.90;;;;;;5053526;28;20076;-24
2022/10/06 09:15:32;;;;;;;10.98;2.05;;;15.00;1.00;;;;;;5054445;28;20048;-25
2022/10/06 09:18:20;;;;;;;13.98;2.53;;;15.20;1.00;;;;;;5037360;28;20051;-25
2022/10/06 09:20:54;;;;;;;8.25;1.50;;;15.10;1.00;;;;;;5054435;28;20134;-25
2022/10/06 09:23:46;;;;;;;9.43;1.95;;;15.10;99.90;;;;;;5054658;28;20056;-24
2022/10/06 09:26:10;;;;;;;14.60;1.77;;;14.90;1.00;;;;;;5052699;28;20049;-24
2022/10/06 09:28:36;;;;;;;8.60;1.70;;;14.80;52.50;;;;;;5053488;28;20468;-24
2022/10/06 09:31:02;;;;;;;8.65;1.60;;;15.30;99.90;;;;;;5054155;28;20175;-24
2022/10/06 09:33:38;;;;;;;13.75;2.22;;;15.90;99.90;;;;;;5054078;28;20049;-25
2022/10/06 09:36:09;;;;;;;10.25;1.75;;;15.60;1.00;;;;;;5054157;28;20493;-24
2022/10/06 09:38:44;;;;;;;14.13;2.25;;;15.20;1.00;;;;;;5054620;28;20056;-24
2022/10/06 09:41:12;;;;;;;9.65;1.70;;;15.50;99.90;;;;;;5053940;28;20057;-24
2022/10/06 09:43:38;;;;;;;12.90;1.70;;;15.30;99.90;;;;;;5053905;28;20049;-25
2022/10/06 09:46:33;;;;;;;11.80;1.75;;;15.40;25.70;;;;;;5053548;28;20395;-25
2022/10/06 09:49:26;;;;;;;8.07;1.60;;;15.40;1.00;;;;;;5054210;28;20122;-24
2022/10/06 09:52:01;;;;;;;15.38;1.75;;;15.80;99.90;;;;;;5051528;28;20061;-24
2022/10/06 09:54:27;;;;;;;7.05;1.40;;;16.20;99.90;;;;;;5053679;28;20059;-25
2022/10/06 09:56:55;;;;;;;10.15;1.95;;;16.50;99.90;;;;;;5054270;28;20045;-25
2022/10/06 09:59:29;;;;;;;10.52;2.00;;;16.90;99.90;;;;;;5052491;28;20044;-25
2022/10/06 10:01:56;;;;;;;11.25;2.38;;;17.00;1.00;;;;;;5054359;28;20056;-25
2022/10/06 10:04:40;;;;;;;9.18;2.45;;;17.20;1.00;;;;;;5053649;28;20051;-25
2022/10/06 10:07:13;;;;;;;11.00;2.85;;;17.30;99.90;;;;;;5053594;28;20084;-25
2022/10/06 10:09:40;;;;;;;8.13;1.38;;;17.20;99.90;;;;;;5053584;28;20572;-25
2022/10/06 10:12:31;;;;;;;9.55;1.50;;;17.00;1.00;;;;;;5053581;28;20495;-26
2022/10/06 10:15:17;;;;;;;8.82;1.58;;;16.90;99.90;;;;;;5053156;28;20048;-25
2022/10/06 10:17:54;;;;;;;9.23;1.70;;;17.20;99.90;;;;;;5042177;28;20510;-25
2022/10/06 10:20:26;;;;;;;6.68;1.73;;;17.60;99.90;;;;;;5054115;28;20096;-26
2022/10/06 10:22:55;;;;;;;10.48;1.77;;;17.50;1.00;;;;;;5054025;28;20048;-25
2022/10/06 10:25:26;;;;;;;7.70;1.35;;;17.20;1.00;;;;;;5053425;28;20060;-26
2022/10/06 10:28:10;;;;;;;9.13;1.83;;;17.30;99.90;;;;;;5053445;28;20056;-25
2022/10/06 10:30:56;;;;;;;7.07;1.25;;;16.80;99.90;;;;;;5053066;28;20052;-25
2022/10/06 10:33:33;;;;;;;13.43;2.78;;;16.30;99.90;;;;;;5053691;28;20387;-25
2022/10/06 10:36:03;;;;;;;5.95;1.30;;;16.20;1.00;;;;;;5053622;28;20472;-25
2022/10/06 10:38:30;;;;;;;6.78;1.20;;;16.50;99.90;;;;;;5053623;28;20060;-25
2022/10/06 10:40:58;;;;;;;5.97;1.05;;;16.80;22.50;;;;;;5053206;28;20057;-25
2022/10/06 10:43:39;;;;;;;10.68;1.75;;;17.20;99.90;;;;;;5053576;28;20057;-25
2022/10/06 10:46:09;;;;;;;11.25;1.60;;;17.30;99.90;;;;;;5053074;28;20049;-25
2022/10/06 10:48:46;;;;;;;8.48;2.05;;;17.70;99.90;;;;;;5052115;28;20052;-25
2022/10/06 10:51:25;;;;;;;6.43;1.23;;;17.90;99.90;;;;;;5053286;28;20056;-25
2022/10/06 10:53:57;;;;;;;7.53;1.55;;;17.90;99.90;;;;;;5053810;28;20394;-25
2022/10/06 10:56:25;;;;;;;7.88;1.33;;;17.70;99.90;;;;;;5053117;28;20053;-25
2022/10/06 10:59:04;;;;;;;7.28;1.13;;;17.80;1.00;;;;;;5053222;28;20451;-25
2022/10/06 11:01:52;;;;;;;5.70;1.35;;;17.60;1.00;;;;;;5053022;28;20057;-26
2022/10/06 11:04:19;;;;;;;6.75;2.00;;;17.60;99.90;;;;;;5052288;28;20049;-25
2022/10/06 11:06:53;;;;;;;8.32;1.70;;;17.50;99.90;;;;;;5051788;28;20549;-25
2022/10/06 11:09:42;;;;;;;6.85;1.00;;;17.60;99.90;;;;;;5053687;28;20056;-26
2022/10/06 11:12:35;;;;;;;5.53;1.20;;;17.40;39.70;;;;;;5052854;28;20124;-25
2022/10/06 11:15:20;;;;;;;7.20;1.20;;;17.40;20.90;;;;;;5053651;28;20083;-25
2022/10/06 11:17:49;;;;;;;4.43;1.10;;;17.30;23.80;;;;;;5053798;28;20053;-25
2022/10/06 11:20:35;;;;;;;7.63;1.00;;;17.10;99.90;;;;;;5036606;28;20093;-25
2022/10/06 11:23:16;;;;;;;8.55;1.70;;;17.30;69.70;;;;;;5053230;28;20498;-25
2022/10/06 11:25:58;;;;;;;8.02;1.60;;;17.40;99.90;;;;;;5054214;28;20075;-25
2022/10/06 11:29:06;;;;;;;5.00;0.85;;;17.30;99.90;;;;;;5056115;28;20053;-25
2022/10/06 11:31:43;;;;;;;6.50;1.10;;;17.20;99.90;;;;;;5052298;28;20061;-25
2022/10/06 11:34:09;;;;;;;8.20;1.05;;;17.60;1.00;;;;;;5055697;28;20383;-25
2022/10/06 11:36:59;;;;;;;8.52;1.27;;;17.60;1.00;;;;;;5057077;28;20037;-25
2022/10/06 11:39:29;;;;;;;7.97;1.00;;;18.10;99.90;;;;;;5055185;28;20049;-26
2022/10/06 11:42:20;;;;;;;6.25;1.35;;;18.30;99.90;;;;;;5037997;28;20111;-26
2022/10/06 11:45:11;;;;;;;6.18;1.17;;;17.80;99.90;;;;;;5054973;28;20052;-25
2022/10/06 11:48:10;;;;;;;10.07;0.90;;;17.80;99.90;;;;;;5054952;28;20044;-25
2022/10/06 11:50:41;;;;;;;6.60;1.20;;;17.60;99.90;;;;;;5038215;28;20063;-25
2022/10/06 11:53:25;;;;;;;5.28;1.25;;;17.40;99.90;;;;;;5055381;28;20053;-25
2022/10/06 11:56:16;;;;;;;7.40;1.27;;;17.30;99.90;;;;;;5054688;28;20041;-26
2022/10/06 11:58:54;;;;;;;8.23;0.93;;;17.10;99.90;;;;;;5054739;28;20483;-25
2022/10/06 12:01:32;;;;;;;3.75;0.65;;;17.20;99.90;;;;;;5055710;28;20091;-27
2022/10/06 12:04:07;;;;;;;6.28;1.08;;;17.30;53.10;;;;;;5055079;28;20049;-25
2022/10/06 12:06:42;;;;;;;12.00;2.42;;;17.60;99.90;;;;;;5055679;28;20044;-26
2022/10/06 12:09:37;;;;;;;4.60;1.27;;;17.50;99.90;;;;;;5054732;28;20112;-25
2022/10/06 12:12:25;;;;;;;6.28;0.90;;;17.40;95.70;;;;;;5053193;28;20136;-25
2022/10/06 12:15:11;;;;;;;11.23;1.30;;;17.40;99.90;;;;;;5032374;28;20061;-25
2022/10/06 12:17:55;;;;;;;4.15;0.77;;;17.30;99.90;;;;;;5054306;28;20094;-25
2022/10/06 12:20:46;;;;;;;5.68;1.38;;;17.40;99.90;;;;;;5055412;28;20084;-25
2022/10/06 12:23:41;;;;;;;6.70;1.23;;;17.60;99.90;;;;;;5051045;28;20057;-25
2022/10/06 12:26:19;;;;;;;5.63;0.93;;;17.80;99.90;;;;;;5054973;28;20131;-25
2022/10/06 12:29:20;;;;;;;7.68;1.17;;;17.70;99.90;;;;;;5037440;28;20094;-25
2022/10/06 12:32:33;;;;;;;14.70;1.63;;;17.70;99.90;;;;;;5055284;28;20094;-25
2022/10/06 12:35:08;;;;;;;6.88;1.10;;;17.90;99.90;;;;;;5016711;28;20096;-25
2022/10/06 12:37:43;;;;;;;7.43;1.42;;;18.20;99.90;;;;;;5032122;28;20443;-26
2022/10/06 12:40:49;;;;;;;5.28;1.13;;;17.90;99.90;;;;;;5047578;28;20057;-27
2022/10/06 12:43:18;;;;;;;10.55;1.58;;;17.70;75.70;;;;;;5055070;28;20092;-25
2022/10/06 12:45:46;;;;;;;4.88;0.90;;;17.50;1.00;;;;;;5054750;28;20049;-25
2022/10/06 12:48:30;;;;;;;6.28;0.80;;;17.60;99.90;;;;;;5055219;28;20102;-25
2022/10/06 12:51:02;;;;;;;6.60;1.15;;;17.60;15.60;;;;;;5055233;28;20049;-25
2022/10/06 12:53:58;;;;;;;8.32;1.58;;;17.90;99.90;;;;;;5055561;28;20076;-25
2022/10/06 12:56:27;;;;;;;8.85;1.10;;;18.10;99.90;;;;;;5058386;28;20044;-25
2022/10/06 12:58:54;;;;;;;3.55;0.70;;;18.20;99.90;;;;;;5068483;28;20445;-25
2022/10/06 13:01:21;;;;;;;5.68;1.38;;;17.90;55.10;;;;;;5069903;28;20178;-25
2022/10/06 13:03:48;;;;;;;8.88;1.13;;;17.70;98.20;;;;;;5073665;28;20049;-27
2022/10/06 13:06:20;;;;;;;4.35;0.95;;;17.40;78.80;;;;;;5061330;28;20056;-25
2022/10/06 13:09:04;;;;;;;7.15;1.10;;;17.50;99.90;;;;;;5058104;28;20045;-26
2022/10/06 13:11:30;;;;;;;7.20;1.15;;;17.60;99.90;;;;;;5059035;28;20060;-25
2022/10/06 13:14:06;;;;;;;8.18;1.70;;;17.70;99.90;;;;;;5072549;28;20514;-26
2022/10/06 13:16:38;;;;;;;7.88;1.42;;;17.80;99.90;;;;;;5054060;28;20045;-25